KBJCKMYL

Guest
Details From KBJC - Jeffco
To KMYL - Mc Call Muni
Flight Number -
Tags Generated
Created
Modified
Stats Distance 572 nm / 1,060 km
Max Altitude 0 ft / 0 m
Waypoints 4
Social Downloads 0
Likes 0
Share VATSIM

Download

Looking for another format? Having issues loading an existing format? Contact us
Advertisement - Login to hide

Notes

Generated

Route

KBJC OTAYI DOQAN KMYL

ID Type Via Altitude Latitude Longitude Leg Dist Tot Dist Heading (true) Name
O KBJC APT - 0 ft / 0 m 39.90587˚ -105.11809˚ - 0 nm - Rocky Mountain Metropolitan Airport
OTAYI FIX - 0 ft / 0 m 42.27800˚ -110.00283˚ 262 nm 262 nm 304° / 301° -
DOQAN FIX - 0 ft / 0 m 44.85703˚ -116.10067˚ 307 nm 570 nm 302° / 298° -
O KMYL APT - 0 ft / 0 m 44.89702˚ -116.10202˚ 2 nm 572 nm 359° / 359° -

Altitude Profile

Advertisement - Login to hide

Weather


0- 5 10 15 20 25 30 35+ Temperature / ° C

Clouds and Precipitation
Forecast for 2017-12-18 12:00 UTC. Updated 2 minutes ago

Ground ~20,000 ft ~40,000 ft Winds

KBJC

Details ICAO KBJC (BJC)
Name Rocky Mountain Metropolitan Airport
Region United States
Timezone America/Denver (UTC-7.0)
Stats Elevation 5,670 ft / 1,728 m (AMSL)
Location 39.909018° -105.116968°
Runways 3
Magnetic Variation 8.297° E

METAR

KBJC 181112Z AUTO 00000KT 10SM CLR M02/M03 A2996 RMK AO2

Decode

TAF

KBJC 180522Z 1806/1906 33008KT P6SM FEW140 SCT200 TEMPO 1806/1809 28015G20KT FM181000 24007KT P6SM SCT200 FM181900 30011KT P6SM FEW120 SCT200 FM190100 23006KT P6SM FEW120 SCT200

Decode

Departure Runways

ID Width Length Bearing (true) Bearing (mag) Surface Threshold Offset Overrun Length
02 75 ft / 23 m 3,601 ft / 1,098 m 34.18° 25.88° Asphalt 0 ft / 0 m 0 ft / 0 m
11L 100 ft / 30 m 8,990 ft / 2,740 m 124.39° 116.09° Asphalt 0 ft / 0 m 0 ft / 0 m
11R 75 ft / 23 m 6,995 ft / 2,132 m 124.39° 116.09° Asphalt 0 ft / 0 m 0 ft / 0 m
20 75 ft / 23 m 3,601 ft / 1,098 m 214.18° 205.88° Asphalt 0 ft / 0 m 0 ft / 0 m
29L 75 ft / 23 m 6,995 ft / 2,132 m 304.40° 296.10° Asphalt 0 ft / 0 m 0 ft / 0 m
29R 100 ft / 30 m 8,990 ft / 2,740 m 304.41° 296.11° Asphalt 0 ft / 0 m 0 ft / 0 m

KMYL

Details ICAO KMYL (MYL)
Name Mc Call Muni
Region United States
Timezone America/Boise (UTC-7.0)
Stats Elevation 5,020 ft / 1,530 m (AMSL)
Location 44.888738° -116.101747°
Runways 1
Magnetic Variation 13.583° E

METAR

KMYL 181122Z AUTO 00000KT 2SM -SN BR SCT011 OVC019 M03/M04 A3011 RMK AO2 P0001 T10281039 $

Decode

TAF

KMYL 180846Z 1809/1906 VRB03KT P6SM VCFG SCT007 OVC015 FM182100 14003KT 4SM BR OVC050

Decode

Destination Runways

ID Width Length Bearing (true) Bearing (mag) Surface Threshold Offset Overrun Length
16 75 ft / 23 m 6,113 ft / 1,863 m 178.61° 165.03° Asphalt 0 ft / 0 m 56 ft / 17 m
34 75 ft / 23 m 6,113 ft / 1,863 m 358.61° 345.03° Asphalt 0 ft / 0 m 0 ft / 0 m

Popular Alternatives